2TX7 weather

Jw Airport
Justin, Texas, United States

Public forecast

Using degrees Fahrenheit for public forecast. Weather courtesy of forecast.io.

Closest aviation weather report (METAR) to Jw Airport

Closest report is Fort Worth Alliance Airport, 7.5 nm (13.9 km) SSE. Retrieved 2019/11/12 14:53 UTC (36 minutes ago):

KAFW 121453Z 01015KT 10SM BKN280 M03/M14 A3066 RMK AO2 SLP396 T10331139 50007

Closest aviation forecast (TAF) to Jw Airport

Closest forecast is Fort Worth Alliance Airport, 7.5 nm (13.9 km) SSE. Retrieved 2019/11/12 12:33 UTC (3 hours ago):

TAF KAFW 121130Z 1212/1312 35015G25KT P6SM SCT300 FM121600 35011KT P6SM FEW300 FM130400 14004KT P6SM SKC